createdAt,value
2022-12-07T00:00:02.287Z,101.27
2022-12-07T00:05:02.188Z,101.33
2022-12-07T00:10:02.734Z,101.56
2022-12-07T00:15:01.647Z,101.4
2022-12-07T00:20:02.119Z,101.49
2022-12-07T00:25:01.740Z,101.3
2022-12-07T00:30:02.457Z,101.23
2022-12-07T00:35:02.159Z,101.25
2022-12-07T00:40:02.391Z,101.2
2022-12-07T00:45:01.989Z,101.17
2022-12-07T00:50:02.196Z,101.07
2022-12-07T00:55:01.839Z,101.02
2022-12-07T01:00:01.867Z,101.17
2022-12-07T01:05:01.801Z,101.14
2022-12-07T01:10:02.187Z,101.18
2022-12-07T01:15:01.912Z,101.07
2022-12-07T01:20:02.178Z,101.14
2022-12-07T01:25:02.225Z,101.18
2022-12-07T01:30:02.311Z,101.06
2022-12-07T01:35:01.887Z,101.04
2022-12-07T01:40:02.117Z,101.07
2022-12-07T01:45:01.895Z,100.93
2022-12-07T01:50:02.482Z,100.94
2022-12-07T01:55:02.091Z,101.08
2022-12-07T02:00:02.667Z,101.03
2022-12-07T02:05:01.709Z,100.95
2022-12-07T02:10:02.471Z,100.88
2022-12-07T02:15:01.920Z,101.06
2022-12-07T02:20:02.100Z,101.1
2022-12-07T02:25:01.405Z,101.07
2022-12-07T02:30:02.639Z,101.11
2022-12-07T02:35:01.365Z,101.04
2022-12-07T02:40:01.820Z,100.93
2022-12-07T02:45:02.220Z,101.05
2022-12-07T02:50:01.525Z,100.99
2022-12-07T02:55:01.283Z,101.01
2022-12-07T03:00:01.836Z,101.04
2022-12-07T03:05:01.499Z,100.87
2022-12-07T03:10:02.271Z,100.98
2022-12-07T03:15:01.946Z,100.88
2022-12-07T03:20:02.610Z,100.88
2022-12-07T03:25:02.080Z,100.93
2022-12-07T03:30:02.668Z,100.91
2022-12-07T03:35:01.949Z,100.95
2022-12-07T03:40:02.173Z,100.9
2022-12-07T03:45:01.891Z,101.04
2022-12-07T03:50:02.566Z,101.04
2022-12-07T03:55:01.339Z,101.08
2022-12-07T04:00:02.604Z,101.03
2022-12-07T04:05:01.350Z,101.04
2022-12-07T04:10:02.225Z,100.91
2022-12-07T04:15:01.975Z,101.11
2022-12-07T04:20:02.470Z,101.19
2022-12-07T04:25:02.159Z,101.2
2022-12-07T04:30:02.552Z,101.3
2022-12-07T04:35:01.585Z,101.25
2022-12-07T04:40:02.525Z,101.27
2022-12-07T04:45:02.210Z,101.33
2022-12-07T04:50:01.939Z,101.28
2022-12-07T04:55:01.665Z,101.24
2022-12-07T05:00:02.514Z,101.33
2022-12-07T05:05:02.207Z,101.15
2022-12-07T05:10:01.844Z,101.09
2022-12-07T05:15:01.699Z,101.31
2022-12-07T05:20:02.330Z,101.27
2022-12-07T05:25:02.063Z,101.2
2022-12-07T05:30:02.512Z,101.17
2022-12-07T05:35:02.261Z,101.25
2022-12-07T05:40:01.632Z,101.27
2022-12-07T05:45:01.412Z,101.11
2022-12-07T05:50:01.744Z,101.24
2022-12-07T05:55:02.022Z,101.07
2022-12-07T06:00:02.780Z,101.17
2022-12-07T06:05:01.976Z,101.12
2022-12-07T06:10:02.380Z,101.12
2022-12-07T06:20:02.477Z,100.72
2022-12-07T06:25:08.096Z,101.03
2022-12-07T06:30:02.498Z,100.97
2022-12-07T06:35:01.272Z,100.98
2022-12-07T06:40:02.750Z,101.11
2022-12-07T06:45:01.533Z,101.26
2022-12-07T06:50:02.157Z,101.14
2022-12-07T06:55:02.196Z,101.03
2022-12-07T07:00:01.656Z,100.98
2022-12-07T07:05:01.775Z,100.82
2022-12-07T07:10:01.982Z,100.7
2022-12-07T07:15:01.763Z,100.62
2022-12-07T07:20:02.168Z,100.69
2022-12-07T07:25:02.133Z,100.51
2022-12-07T07:30:01.867Z,100.78
2022-12-07T07:35:01.864Z,100.73
2022-12-07T07:40:01.718Z,100.82
2022-12-07T07:45:01.390Z,101.05
2022-12-07T07:50:01.915Z,100.87
2022-12-07T07:55:01.765Z,101.03
2022-12-07T08:00:01.837Z,100.99
2022-12-07T08:05:01.635Z,101.14
2022-12-07T08:10:02.601Z,101.06
2022-12-07T08:15:02.087Z,101.13
2022-12-07T08:20:01.753Z,101.17
2022-12-07T08:25:01.745Z,101.03
2022-12-07T08:30:02.177Z,100.88
2022-12-07T08:35:02.254Z,101.19
2022-12-07T08:40:02.568Z,100.99
2022-12-07T08:45:01.883Z,101.04
2022-12-07T08:50:02.243Z,101.26
2022-12-07T08:55:02.084Z,100.98
2022-12-07T09:00:02.446Z,100.91
2022-12-07T09:05:01.409Z,100.85
2022-12-07T09:10:02.202Z,100.68
2022-12-07T09:15:01.922Z,100.59
2022-12-07T09:20:02.659Z,100.66
2022-12-07T09:25:01.407Z,100.65
2022-12-07T09:30:02.139Z,100.49
2022-12-07T09:35:02.057Z,100.68
2022-12-07T09:40:01.491Z,100.56
2022-12-07T09:45:01.311Z,100.24
2022-12-07T09:50:01.655Z,100.03
2022-12-07T09:55:02.617Z,99.78
2022-12-07T10:00:01.636Z,99.82
2022-12-07T10:05:02.404Z,99.77
2022-12-07T10:10:01.573Z,99.52
2022-12-07T10:15:08.689Z,99.33
2022-12-07T10:20:02.111Z,99.3
2022-12-07T10:25:01.929Z,98.68
2022-12-07T10:30:01.493Z,98.2
2022-12-07T10:35:01.731Z,98.36
2022-12-07T10:40:01.293Z,98.52
2022-12-07T10:45:02.327Z,98.1
2022-12-07T10:50:02.139Z,98.31
2022-12-07T10:55:01.867Z,99.46
2022-12-07T11:00:01.828Z,98.89
2022-12-07T11:05:02.074Z,97.67
2022-12-07T11:10:20.780Z,97.37
2022-12-07T11:15:01.303Z,97.31
2022-12-07T11:20:02.368Z,96.72
2022-12-07T11:25:01.395Z,96.66
2022-12-07T11:30:02.564Z,96.79
2022-12-07T11:35:01.845Z,96.61
2022-12-07T11:40:01.849Z,98.82
2022-12-07T11:45:01.725Z,97.51
2022-12-07T11:50:02.142Z,98.35
2022-12-07T11:55:01.322Z,98.55
2022-12-07T12:00:01.985Z,97.26
2022-12-07T12:05:02.180Z,98.21
2022-12-07T12:10:02.428Z,97.72
2022-12-07T12:15:02.054Z,97.82
2022-12-07T12:20:01.386Z,98.03
2022-12-07T12:25:02.376Z,96.12
2022-12-07T12:30:01.424Z,97.24
2022-12-07T12:35:01.793Z,97.24
2022-12-07T12:40:01.657Z,98.07
2022-12-07T12:45:02.204Z,97.87
2022-12-07T12:50:01.778Z,98.23
2022-12-07T12:55:02.504Z,98.07
2022-12-07T13:00:01.481Z,98.23
2022-12-07T13:05:02.565Z,98.59
2022-12-07T13:10:01.841Z,97.24
2022-12-07T13:15:02.595Z,98.36
2022-12-07T13:20:02.228Z,96.02
2022-12-07T13:25:01.558Z,99.13
2022-12-07T13:30:02.196Z,99.48
2022-12-07T13:35:01.744Z,99.92
2022-12-07T13:40:02.013Z,99.71
2022-12-07T13:45:01.816Z,99.69
2022-12-07T13:50:01.510Z,97.84
2022-12-07T13:55:02.448Z,98.07
2022-12-07T14:00:01.958Z,97.79
2022-12-07T14:05:01.681Z,98.13
2022-12-07T14:10:02.023Z,99.84
2022-12-07T14:15:01.795Z,98.23
2022-12-07T14:20:01.977Z,100.13
2022-12-07T14:25:02.487Z,98.81
2022-12-07T14:30:02.173Z,100.1
2022-12-07T14:35:02.071Z,100.12
2022-12-07T14:40:01.965Z,98.43
2022-12-07T14:45:02.820Z,98.74
2022-12-07T14:50:04.923Z,98.44
2022-12-07T14:55:02.292Z,98.22
2022-12-07T15:00:02.198Z,98.55
2022-12-07T15:05:02.714Z,98.83
2022-12-07T15:10:01.436Z,99.31
2022-12-07T15:15:02.224Z,99.41
2022-12-07T15:20:01.433Z,99.53
2022-12-07T15:25:02.050Z,99.44
2022-12-07T15:30:02.300Z,99.41
2022-12-07T15:35:01.988Z,99.4
2022-12-07T15:40:07.167Z,99.65
2022-12-07T15:45:02.650Z,99.26
2022-12-07T15:50:01.374Z,99.41
2022-12-07T15:55:02.554Z,99.59
2022-12-07T16:00:01.292Z,99.69
2022-12-07T16:05:02.138Z,99.62
2022-12-07T16:10:01.871Z,99.47
2022-12-07T16:15:02.284Z,99.65
2022-12-07T16:20:02.205Z,99.63
2022-12-07T16:25:01.862Z,99.58
2022-12-07T16:30:01.739Z,99.69
2022-12-07T16:35:02.153Z,99.62
2022-12-07T16:40:01.646Z,99.61
2022-12-07T16:45:01.700Z,99.61
2022-12-07T16:50:01.871Z,99.58
2022-12-07T16:55:02.328Z,99.66
2022-12-07T17:00:01.478Z,99.63
2022-12-07T17:05:02.384Z,99.75
2022-12-07T17:10:02.134Z,99.69
2022-12-07T17:15:02.709Z,99.67
2022-12-07T17:20:01.277Z,99.59
2022-12-07T17:25:02.061Z,99.7
2022-12-07T17:30:01.796Z,99.66
2022-12-07T17:35:02.343Z,99.43
2022-12-07T17:40:01.939Z,99.58
2022-12-07T17:45:02.499Z,99.56
2022-12-07T17:50:06.690Z,99.46
2022-12-07T17:55:02.059Z,99.53
2022-12-07T18:00:01.947Z,99.5
2022-12-07T18:05:02.036Z,99.33
2022-12-07T18:10:01.514Z,99.43
2022-12-07T18:15:02.380Z,99.38
2022-12-07T18:20:01.305Z,99.32
2022-12-07T18:25:02.035Z,99.27
2022-12-07T18:30:02.004Z,99.3
2022-12-07T18:35:02.536Z,99.14
2022-12-07T18:40:02.235Z,99.12
2022-12-07T18:45:01.905Z,99.21
2022-12-07T18:50:01.802Z,99.33
2022-12-07T18:55:02.513Z,99.03
2022-12-07T19:00:02.119Z,99.08
2022-12-07T19:05:02.518Z,98.94
2022-12-07T19:10:01.561Z,98.92
2022-12-07T19:15:02.112Z,98.89
2022-12-07T19:20:02.046Z,99
2022-12-07T19:25:02.269Z,98.92
2022-12-07T19:30:02.036Z,98.98
2022-12-07T19:35:02.240Z,98.98
2022-12-07T19:40:01.647Z,98.9
2022-12-07T19:45:01.700Z,98.99
2022-12-07T19:50:01.906Z,99.01
2022-12-07T19:55:02.416Z,98.95
2022-12-07T20:00:02.118Z,98.85
2022-12-07T20:05:06.108Z,99.04
2022-12-07T20:10:01.452Z,98.95
2022-12-07T20:15:01.791Z,99.09
2022-12-07T20:20:01.760Z,99.05
2022-12-07T20:25:02.331Z,99.01
2022-12-07T20:30:01.335Z,99.08
2022-12-07T20:35:02.075Z,98.98
2022-12-07T20:40:01.918Z,99.06
2022-12-07T20:45:03.685Z,99.1
2022-12-07T20:50:01.889Z,98.85
2022-12-07T20:55:02.948Z,98.79
2022-12-07T21:00:01.664Z,99
2022-12-07T21:05:02.353Z,98.91
2022-12-07T21:10:01.843Z,98.9
2022-12-07T21:15:02.616Z,98.76
2022-12-07T21:20:01.632Z,98.61
2022-12-07T21:25:02.452Z,98.66
2022-12-07T21:30:01.303Z,98.55
2022-12-07T21:35:02.472Z,98.57
2022-12-07T21:40:01.715Z,98.37
2022-12-07T21:45:02.559Z,100.29
2022-12-07T21:50:01.416Z,98.6
2022-12-07T21:55:02.246Z,98.27
2022-12-07T22:00:02.205Z,98.91
2022-12-07T22:05:01.893Z,98.31
2022-12-07T22:10:01.854Z,98.48
2022-12-07T22:15:02.440Z,98.46
2022-12-07T22:20:02.031Z,98.24
2022-12-07T22:25:02.516Z,98.35
2022-12-07T22:30:01.779Z,98.24
2022-12-07T22:35:01.837Z,98.81
2022-12-07T22:40:02.042Z,100.32
2022-12-07T22:45:02.325Z,100.23
2022-12-07T22:50:02.322Z,98.21
2022-12-07T22:55:02.960Z,98.31
2022-12-07T23:00:04.694Z,98.79
2022-12-07T23:05:03.135Z,98.87
2022-12-07T23:10:01.332Z,100.15
2022-12-07T23:15:01.873Z,100.22
2022-12-07T23:20:01.417Z,100.31
2022-12-07T23:25:02.013Z,100.16
2022-12-07T23:30:01.981Z,98.08
2022-12-07T23:35:01.779Z,98.22
2022-12-07T23:40:01.653Z,98.31
2022-12-07T23:45:02.398Z,98.79
2022-12-07T23:50:01.565Z,100.2
2022-12-07T23:55:02.440Z,98.43
